createdAt,value
2017-08-17T00:00:56.742Z,8.50
2017-08-17T00:03:27.314Z,7.67
2017-08-17T00:05:57.909Z,9.20
2017-08-17T00:08:28.436Z,9.40
2017-08-17T00:10:58.936Z,7.83
2017-08-17T00:13:29.415Z,7.87
2017-08-17T00:16:00.335Z,9.90
2017-08-17T00:18:30.665Z,9.63
2017-08-17T00:21:01.107Z,10.57
2017-08-17T00:23:31.638Z,9.90
2017-08-17T00:26:02.023Z,8.60
2017-08-17T00:28:32.547Z,7.70
2017-08-17T00:31:03.633Z,8.43
2017-08-17T00:33:34.219Z,10.57
2017-08-17T00:36:05.466Z,10.30
2017-08-17T00:38:36.816Z,9.00
2017-08-17T00:41:20.670Z,9.00
2017-08-17T00:43:52.086Z,9.07
2017-08-17T00:46:22.889Z,9.70
2017-08-17T00:48:53.531Z,10.50
2017-08-17T00:51:24.109Z,10.40
2017-08-17T00:53:55.411Z,10.00
2017-08-17T00:56:26.030Z,9.50
2017-08-17T00:58:56.782Z,10.07
2017-08-17T01:01:27.190Z,9.77
2017-08-17T01:03:57.661Z,8.20
2017-08-17T01:06:28.255Z,7.00
2017-08-17T01:08:58.902Z,5.30
2017-08-17T01:11:29.518Z,6.80
2017-08-17T01:14:00.169Z,6.37
2017-08-17T01:16:30.544Z,5.03
2017-08-17T01:19:01.906Z,6.63
2017-08-17T01:21:33.110Z,7.37
2017-08-17T01:24:03.605Z,6.43
2017-08-17T01:26:34.220Z,6.90
2017-08-17T01:29:04.835Z,5.50
2017-08-17T01:31:36.066Z,5.23
2017-08-17T01:34:06.438Z,5.73
2017-08-17T01:36:36.871Z,6.50
2017-08-17T01:39:07.488Z,6.40
2017-08-17T01:41:37.937Z,6.43
2017-08-17T01:44:08.527Z,5.30
2017-08-17T01:46:39.185Z,5.27
2017-08-17T01:49:09.805Z,5.03
2017-08-17T01:51:40.351Z,4.73
2017-08-17T01:54:10.868Z,4.10
2017-08-17T01:56:42.167Z,4.20
2017-08-17T01:59:12.564Z,4.03
2017-08-17T02:01:43.035Z,3.33
2017-08-17T02:04:13.613Z,2.73
2017-08-17T02:06:44.792Z,3.10
2017-08-17T02:09:15.202Z,3.10
2017-08-17T02:11:45.682Z,3.23
2017-08-17T02:14:17.731Z,3.00
2017-08-17T02:16:49.096Z,3.47
2017-08-17T02:19:19.363Z,3.17
2017-08-17T02:21:49.733Z,4.60
2017-08-17T02:24:20.306Z,4.20
2017-08-17T02:26:51.518Z,3.97
2017-08-17T02:29:21.899Z,2.97
2017-08-17T02:31:52.338Z,3.60
2017-08-17T02:34:23.114Z,5.73
2017-08-17T02:36:53.597Z,6.20
2017-08-17T02:39:24.227Z,7.60
2017-08-17T02:41:54.836Z,7.50
2017-08-17T02:44:25.493Z,8.00
2017-08-17T02:46:56.028Z,9.97
2017-08-17T02:49:26.579Z,8.80
2017-08-17T02:51:57.177Z,10.10
2017-08-17T02:54:28.420Z,11.27
2017-08-17T02:56:59.578Z,12.67
2017-08-17T02:59:30.240Z,10.13
2017-08-17T03:02:00.893Z,13.40
2017-08-17T03:04:31.517Z,10.93
2017-08-17T03:07:02.140Z,11.13
2017-08-17T03:09:32.771Z,10.70
2017-08-17T03:12:03.348Z,9.67
2017-08-17T03:14:33.856Z,8.60
2017-08-17T03:17:05.038Z,9.63
2017-08-17T03:19:36.302Z,8.77
2017-08-17T03:22:06.772Z,8.97
2017-08-17T03:24:37.291Z,8.57
2017-08-17T03:27:07.816Z,7.87
2017-08-17T03:29:38.313Z,7.67
2017-08-17T03:32:09.622Z,7.57
2017-08-17T03:34:40.103Z,8.50
2017-08-17T03:37:10.570Z,7.13
2017-08-17T03:39:41.073Z,6.97
2017-08-17T03:42:11.629Z,7.50
2017-08-17T03:44:42.262Z,6.40
2017-08-17T03:47:12.896Z,6.87
2017-08-17T03:49:43.635Z,6.80
2017-08-17T03:52:14.241Z,6.77
2017-08-17T03:54:44.554Z,8.33
2017-08-17T03:57:14.990Z,7.50
2017-08-17T03:59:45.623Z,7.10
2017-08-17T04:02:16.239Z,6.53
2017-08-17T04:04:46.839Z,7.83
2017-08-17T04:07:17.417Z,7.07
2017-08-17T04:09:48.035Z,6.57
2017-08-17T04:12:19.332Z,8.13
2017-08-17T04:14:49.929Z,7.40
2017-08-17T04:17:21.882Z,7.83
2017-08-17T04:19:53.182Z,7.90
2017-08-17T04:22:23.896Z,6.97
2017-08-17T04:24:54.346Z,6.77
2017-08-17T04:27:24.842Z,7.57
2017-08-17T04:29:55.451Z,6.30
2017-08-17T04:32:26.651Z,6.03
2017-08-17T04:34:57.048Z,6.40
2017-08-17T04:37:27.511Z,6.80
2017-08-17T04:39:58.037Z,8.23
2017-08-17T04:42:28.675Z,8.10
2017-08-17T04:44:59.060Z,8.93
2017-08-17T04:47:30.358Z,12.83
2017-08-17T04:50:00.857Z,7.73
2017-08-17T04:52:31.422Z,6.07
2017-08-17T04:55:01.802Z,5.80
2017-08-17T04:57:49.434Z,5.73
2017-08-17T05:00:20.869Z,5.63
2017-08-17T05:02:52.171Z,6.00
2017-08-17T05:05:22.516Z,6.60
2017-08-17T05:07:53.106Z,6.63
2017-08-17T05:10:24.035Z,6.57
2017-08-17T05:12:54.644Z,5.40
2017-08-17T05:15:25.958Z,4.53
2017-08-17T05:17:57.489Z,5.83
2017-08-17T05:20:28.069Z,5.30
2017-08-17T05:22:58.655Z,5.80
2017-08-17T05:25:29.296Z,5.40
2017-08-17T05:27:59.745Z,5.40
2017-08-17T05:30:30.266Z,3.90
2017-08-17T05:33:00.814Z,5.37
2017-08-17T05:35:31.311Z,4.60
2017-08-17T05:38:01.884Z,4.90
2017-08-17T05:40:32.453Z,4.13
2017-08-17T05:43:03.082Z,5.03
2017-08-17T05:45:34.332Z,3.60
2017-08-17T05:48:04.868Z,4.40
2017-08-17T05:50:35.307Z,3.90
2017-08-17T05:53:05.921Z,5.20
2017-08-17T05:55:36.478Z,3.30
2017-08-17T05:58:07.007Z,3.20
2017-08-17T06:00:37.590Z,2.80
2017-08-17T06:03:08.184Z,3.13
2017-08-17T06:05:38.826Z,3.10
2017-08-17T06:08:09.367Z,4.43
2017-08-17T06:10:40.089Z,3.00
2017-08-17T06:13:11.704Z,3.30
2017-08-17T06:15:43.805Z,3.13
2017-08-17T06:18:14.806Z,3.90
2017-08-17T06:20:46.120Z,2.97
2017-08-17T06:23:16.736Z,2.70
2017-08-17T06:25:47.368Z,3.10
2017-08-17T06:28:17.873Z,2.77
2017-08-17T06:30:48.684Z,3.10
2017-08-17T06:33:19.950Z,2.20
2017-08-17T06:35:51.086Z,2.60
2017-08-17T06:38:22.354Z,2.40
2017-08-17T06:40:52.768Z,1.93
2017-08-17T06:43:24.087Z,1.83
2017-08-17T06:45:54.793Z,2.10
2017-08-17T06:48:25.211Z,2.37
2017-08-17T06:50:55.762Z,2.30
2017-08-17T06:53:26.450Z,2.50
2017-08-17T06:55:56.971Z,2.60
2017-08-17T06:58:28.059Z,2.40
2017-08-17T07:00:58.794Z,2.40
2017-08-17T07:03:29.211Z,2.80
2017-08-17T07:05:59.749Z,3.20
2017-08-17T07:08:30.235Z,3.90
2017-08-17T07:11:01.447Z,3.80
2017-08-17T07:13:32.066Z,3.20
2017-08-17T07:16:02.588Z,4.00
2017-08-17T07:18:33.427Z,3.53
2017-08-17T07:21:03.925Z,4.07
2017-08-17T07:23:35.138Z,3.20
2017-08-17T07:26:05.532Z,3.07
2017-08-17T07:28:36.136Z,2.77
2017-08-17T07:31:06.715Z,2.97
2017-08-17T07:33:37.223Z,3.20
2017-08-17T07:36:07.714Z,2.50
2017-08-17T07:38:38.899Z,2.30
2017-08-17T07:41:09.349Z,2.77
2017-08-17T07:43:39.733Z,3.53
2017-08-17T07:46:10.369Z,2.70
2017-08-17T07:48:40.873Z,2.63
2017-08-17T07:51:12.182Z,3.30
2017-08-17T07:53:42.935Z,2.90
2017-08-17T07:56:13.399Z,2.50
2017-08-17T07:58:44.902Z,2.97
2017-08-17T08:01:15.317Z,3.03
2017-08-17T08:03:45.865Z,2.63
2017-08-17T08:06:16.354Z,2.90
2017-08-17T08:08:46.912Z,3.30
2017-08-17T08:11:17.493Z,3.80
2017-08-17T08:13:48.092Z,3.50
2017-08-17T08:16:18.669Z,3.30
2017-08-17T08:18:50.532Z,2.50
2017-08-17T08:21:21.003Z,2.80
2017-08-17T08:23:51.572Z,2.67
2017-08-17T08:26:22.060Z,3.00
2017-08-17T08:28:52.606Z,3.10
2017-08-17T08:31:23.238Z,2.97
2017-08-17T08:33:53.731Z,3.40
2017-08-17T08:36:24.365Z,2.67
2017-08-17T08:38:55.001Z,2.70
2017-08-17T08:41:25.545Z,3.50
2017-08-17T08:43:56.170Z,2.87
2017-08-17T08:46:26.688Z,3.57
2017-08-17T08:48:57.925Z,2.67
2017-08-17T08:51:32.060Z,2.70
2017-08-17T08:54:05.338Z,2.90
2017-08-17T08:56:36.540Z,3.17
2017-08-17T08:59:07.031Z,3.17
2017-08-17T09:01:37.791Z,2.17
2017-08-17T09:04:08.241Z,3.03
2017-08-17T09:06:38.620Z,3.20
2017-08-17T09:09:09.018Z,2.60
2017-08-17T09:11:39.364Z,3.50
2017-08-17T09:14:10.966Z,3.40
2017-08-17T09:16:41.326Z,2.70
2017-08-17T09:19:11.996Z,2.73
2017-08-17T09:21:42.519Z,3.13
2017-08-17T09:24:13.019Z,4.40
2017-08-17T09:26:43.555Z,3.77
2017-08-17T09:29:14.035Z,3.20
2017-08-17T09:31:44.487Z,3.03
2017-08-17T09:34:15.095Z,3.47
2017-08-17T09:36:45.709Z,2.67
2017-08-17T09:39:16.202Z,5.50
2017-08-17T09:41:46.590Z,3.53
2017-08-17T09:44:16.939Z,2.93
2017-08-17T09:46:47.342Z,3.17
2017-08-17T09:49:17.706Z,3.17
2017-08-17T09:51:48.073Z,3.30
2017-08-17T09:54:18.626Z,3.50
2017-08-17T09:56:49.273Z,4.40
2017-08-17T09:59:19.730Z,3.47
2017-08-17T10:01:50.205Z,3.40
2017-08-17T10:04:20.973Z,3.60
2017-08-17T10:06:51.327Z,2.37
2017-08-17T10:09:22.027Z,3.77
2017-08-17T10:11:52.357Z,3.90
2017-08-17T10:14:23.179Z,4.30
2017-08-17T10:16:53.697Z,3.73
2017-08-17T10:19:24.554Z,3.43
2017-08-17T10:21:54.923Z,3.90
2017-08-17T10:24:26.354Z,3.93
2017-08-17T10:26:56.967Z,3.70
2017-08-17T10:29:27.331Z,3.50
2017-08-17T10:31:57.799Z,3.63
2017-08-17T10:34:28.195Z,3.70
2017-08-17T10:36:58.744Z,3.27
2017-08-17T10:39:29.885Z,3.47
2017-08-17T10:42:01.185Z,3.50
2017-08-17T10:44:31.821Z,3.70
2017-08-17T10:47:02.188Z,3.40
2017-08-17T10:49:32.668Z,4.13
2017-08-17T10:52:03.295Z,3.70
2017-08-17T10:54:33.749Z,3.13
2017-08-17T10:57:04.107Z,3.10
2017-08-17T10:59:34.749Z,3.60
2017-08-17T11:02:06.008Z,3.20
2017-08-17T11:04:37.412Z,3.13
2017-08-17T11:07:07.947Z,3.70
2017-08-17T11:09:38.426Z,3.50
2017-08-17T11:12:09.099Z,3.23
2017-08-17T11:14:39.526Z,3.30
2017-08-17T11:17:10.057Z,4.03
2017-08-17T11:19:41.102Z,3.20
2017-08-17T11:22:11.491Z,3.10
2017-08-17T11:24:42.074Z,3.60
2017-08-17T11:27:12.484Z,3.73
2017-08-17T11:29:43.047Z,3.00
2017-08-17T11:32:13.567Z,3.73
2017-08-17T11:34:44.144Z,2.87
2017-08-17T11:37:14.712Z,3.40
2017-08-17T11:39:45.390Z,5.90
2017-08-17T11:42:16.538Z,4.60
2017-08-17T11:44:47.630Z,4.53
2017-08-17T11:47:17.966Z,4.20
2017-08-17T11:49:48.479Z,4.37
2017-08-17T11:52:19.043Z,3.70
2017-08-17T11:54:49.662Z,3.70
2017-08-17T11:57:20.128Z,3.90
2017-08-17T11:59:50.657Z,3.90
2017-08-17T12:02:21.527Z,4.00
2017-08-17T12:04:51.935Z,4.10
2017-08-17T12:07:23.322Z,4.80
2017-08-17T12:09:53.670Z,4.67
2017-08-17T12:12:24.178Z,4.07
2017-08-17T12:14:54.609Z,4.70
2017-08-17T12:17:25.091Z,4.40
2017-08-17T12:19:55.954Z,5.60
2017-08-17T12:22:26.416Z,9.47
2017-08-17T12:24:57.006Z,7.93
2017-08-17T12:27:28.282Z,13.07
2017-08-17T12:29:58.851Z,7.83
2017-08-17T12:32:29.326Z,9.13
2017-08-17T12:34:59.727Z,10.07
2017-08-17T12:37:30.221Z,6.53
2017-08-17T12:40:00.536Z,6.10
2017-08-17T12:42:31.276Z,6.57
2017-08-17T12:45:01.784Z,8.83
2017-08-17T12:47:32.222Z,10.47
2017-08-17T12:50:02.742Z,6.20
2017-08-17T12:52:34.041Z,6.07
2017-08-17T12:55:04.710Z,10.10
2017-08-17T12:57:35.010Z,10.87
2017-08-17T13:00:05.374Z,11.33
2017-08-17T13:02:35.983Z,11.20
2017-08-17T13:05:06.563Z,16.40
2017-08-17T13:07:37.151Z,15.90
2017-08-17T13:10:08.443Z,12.57
2017-08-17T13:12:38.971Z,9.87
2017-08-17T13:15:09.620Z,9.80
2017-08-17T13:17:40.113Z,8.97
2017-08-17T13:20:12.325Z,8.13
2017-08-17T13:22:43.752Z,8.40
2017-08-17T13:25:14.469Z,8.63
2017-08-17T13:27:44.787Z,7.80
2017-08-17T13:30:15.963Z,6.70
2017-08-17T13:32:46.291Z,7.20
2017-08-17T13:35:16.799Z,9.03
2017-08-17T13:37:47.131Z,8.47
2017-08-17T13:40:17.789Z,7.00
2017-08-17T13:42:48.189Z,6.30
2017-08-17T13:45:18.656Z,6.20
2017-08-17T13:47:49.027Z,7.20
2017-08-17T13:50:20.335Z,7.20
2017-08-17T13:52:50.655Z,6.47
2017-08-17T13:55:20.911Z,6.10
2017-08-17T13:57:52.334Z,6.70
2017-08-17T14:00:22.878Z,5.50
2017-08-17T14:02:53.359Z,6.13
2017-08-17T14:05:23.838Z,5.50
2017-08-17T14:07:54.568Z,5.27
2017-08-17T14:10:25.179Z,5.67
2017-08-17T14:12:55.812Z,4.70
2017-08-17T14:15:26.407Z,4.70
2017-08-17T14:17:57.684Z,5.80
2017-08-17T14:20:28.856Z,5.30
2017-08-17T14:22:59.277Z,5.40
2017-08-17T14:25:29.630Z,5.60
2017-08-17T14:28:00.186Z,5.50
2017-08-17T14:30:31.267Z,4.93
2017-08-17T14:33:01.658Z,5.77
2017-08-17T14:35:32.950Z,5.23
2017-08-17T14:38:04.310Z,4.90
2017-08-17T14:40:34.668Z,4.90
2017-08-17T14:43:04.943Z,5.50
2017-08-17T14:45:36.170Z,4.97
2017-08-17T14:48:07.132Z,5.50
2017-08-17T14:50:37.894Z,4.80
2017-08-17T14:53:08.556Z,4.50
2017-08-17T14:55:39.271Z,5.57
2017-08-17T14:58:09.706Z,5.83
2017-08-17T15:00:40.074Z,5.40
2017-08-17T15:03:10.493Z,4.50
2017-08-17T15:05:41.778Z,5.80
2017-08-17T15:08:12.408Z,5.63
2017-08-17T15:10:42.960Z,5.90
2017-08-17T15:13:13.882Z,5.70
2017-08-17T15:15:44.374Z,5.33
2017-08-17T15:18:15.547Z,6.90
2017-08-17T15:20:46.626Z,7.33
2017-08-17T15:23:16.996Z,6.10
2017-08-17T15:25:47.488Z,5.63
2017-08-17T15:28:17.926Z,5.23
2017-08-17T15:30:48.618Z,5.03
2017-08-17T15:33:19.404Z,5.50
2017-08-17T15:35:50.616Z,5.03
2017-08-17T15:38:22.665Z,4.90
2017-08-17T15:43:29.577Z,4.27
2017-08-17T15:46:00.203Z,5.53
2017-08-17T15:48:30.737Z,4.77
2017-08-17T15:51:01.567Z,5.30
2017-08-17T15:53:32.068Z,5.57
2017-08-17T15:56:03.391Z,4.90
2017-08-17T15:58:33.975Z,4.10
2017-08-17T16:01:04.511Z,5.30
2017-08-17T16:03:35.157Z,4.60
2017-08-17T16:06:05.600Z,4.73
2017-08-17T16:08:36.181Z,4.70
2017-08-17T16:11:07.529Z,4.63
2017-08-17T16:13:38.202Z,4.57
2017-08-17T16:16:08.833Z,4.97
2017-08-17T16:18:41.610Z,4.60
2017-08-17T16:21:13.798Z,5.17
2017-08-17T16:23:44.881Z,4.87
2017-08-17T16:26:17.063Z,4.50
2017-08-17T16:28:48.395Z,4.00
2017-08-17T16:31:19.809Z,4.10
2017-08-17T16:33:51.732Z,4.40
2017-08-17T16:36:23.619Z,4.10
2017-08-17T16:38:54.070Z,4.53
2017-08-17T16:41:24.857Z,4.83
2017-08-17T16:43:55.245Z,4.37
2017-08-17T16:46:25.651Z,4.00
2017-08-17T16:48:56.243Z,4.40
2017-08-17T16:51:27.373Z,3.80
2017-08-17T16:53:58.559Z,4.53
2017-08-17T16:56:29.063Z,4.30
2017-08-17T16:58:59.639Z,4.83
2017-08-17T17:01:30.156Z,4.40
2017-08-17T17:04:00.670Z,4.00
2017-08-17T17:06:31.105Z,4.80
2017-08-17T17:09:01.691Z,4.10
2017-08-17T17:11:32.266Z,4.20
2017-08-17T17:14:02.825Z,5.07
2017-08-17T17:16:33.287Z,4.50
2017-08-17T17:19:03.658Z,4.27
2017-08-17T17:21:34.289Z,4.70
2017-08-17T17:24:04.782Z,5.27
2017-08-17T17:26:35.269Z,4.97
2017-08-17T17:29:05.715Z,5.07
2017-08-17T17:31:36.264Z,5.53
2017-08-17T17:34:06.769Z,4.83
2017-08-17T17:36:37.389Z,5.17
2017-08-17T17:39:07.849Z,4.33
2017-08-17T17:41:38.359Z,3.90
2017-08-17T17:44:08.849Z,4.60
2017-08-17T17:46:39.370Z,4.23
2017-08-17T17:49:10.447Z,3.83
2017-08-17T17:51:40.937Z,4.30
2017-08-17T17:54:11.345Z,4.83
2017-08-17T17:56:41.916Z,4.27
2017-08-17T17:59:12.533Z,4.40
2017-08-17T18:01:43.223Z,4.73
2017-08-17T18:04:13.769Z,5.10
2017-08-17T18:06:44.352Z,4.70
2017-08-17T18:09:14.945Z,5.13
2017-08-17T18:11:45.722Z,4.60
2017-08-17T18:14:16.335Z,5.70
2017-08-17T18:16:47.491Z,7.40
2017-08-17T18:19:18.033Z,7.00
2017-08-17T18:21:48.934Z,7.70
2017-08-17T18:24:19.366Z,6.77
2017-08-17T18:26:49.824Z,6.17
2017-08-17T18:29:20.338Z,6.67
2017-08-17T18:31:51.627Z,6.83
2017-08-17T18:34:22.039Z,7.47
2017-08-17T18:36:52.475Z,7.57
2017-08-17T18:39:23.083Z,7.30
2017-08-17T18:41:54.115Z,7.43
2017-08-17T18:44:25.519Z,7.10
2017-08-17T18:46:55.950Z,8.27
2017-08-17T18:49:26.222Z,8.63
2017-08-17T18:51:57.626Z,8.13
2017-08-17T18:54:28.137Z,9.30
2017-08-17T18:56:58.487Z,8.33
2017-08-17T18:59:29.061Z,8.70
2017-08-17T19:02:00.194Z,6.67
2017-08-17T19:04:30.682Z,7.10
2017-08-17T19:07:01.185Z,7.43
2017-08-17T19:09:31.686Z,8.40
2017-08-17T19:12:02.124Z,7.60
2017-08-17T19:14:33.447Z,9.23
2017-08-17T19:17:04.038Z,9.20
2017-08-17T19:19:34.648Z,9.90
2017-08-17T19:22:06.243Z,11.50
2017-08-17T19:24:36.734Z,11.90
2017-08-17T19:27:08.098Z,11.80
2017-08-17T19:29:38.603Z,11.67
2017-08-17T19:32:09.857Z,10.70
2017-08-17T19:34:41.128Z,12.13
2017-08-17T19:37:11.707Z,11.07
2017-08-17T19:39:42.317Z,9.83
2017-08-17T19:42:12.811Z,9.57
2017-08-17T19:44:43.371Z,8.50
2017-08-17T19:47:13.858Z,8.43
2017-08-17T19:49:45.161Z,7.50
2017-08-17T19:52:15.565Z,8.93
2017-08-17T19:54:45.973Z,7.90
2017-08-17T19:57:17.271Z,8.07
2017-08-17T19:59:47.635Z,8.10
2017-08-17T20:02:18.912Z,7.07
2017-08-17T20:04:49.573Z,6.00
2017-08-17T20:07:19.818Z,6.87
2017-08-17T20:09:50.428Z,6.53
2017-08-17T20:12:20.860Z,6.57
2017-08-17T20:14:51.401Z,7.10
2017-08-17T20:17:21.882Z,6.20
2017-08-17T20:19:52.449Z,5.97
2017-08-17T20:22:23.607Z,5.67
2017-08-17T20:24:54.194Z,6.57
2017-08-17T20:27:25.524Z,5.30
2017-08-17T20:29:56.096Z,5.70
2017-08-17T20:32:26.553Z,5.50
2017-08-17T20:34:57.029Z,6.20
2017-08-17T20:37:28.404Z,6.47
2017-08-17T20:39:58.908Z,9.23
2017-08-17T20:42:30.118Z,9.33
2017-08-17T20:45:00.524Z,9.20
2017-08-17T20:47:31.124Z,8.10
2017-08-17T20:50:01.636Z,7.80
2017-08-17T20:52:32.247Z,7.53
2017-08-17T20:55:02.800Z,6.47
2017-08-17T20:57:33.979Z,6.87
2017-08-17T21:00:04.385Z,5.93
2017-08-17T21:02:35.011Z,5.63
2017-08-17T21:05:06.164Z,6.30
2017-08-17T21:07:36.804Z,6.53
2017-08-17T21:10:07.424Z,5.73
2017-08-17T21:12:38.055Z,6.10
2017-08-17T21:15:08.691Z,5.20
2017-08-17T21:17:40.022Z,6.07
2017-08-17T21:20:10.501Z,5.23
2017-08-17T21:22:41.340Z,5.50
2017-08-17T21:25:11.770Z,6.00
2017-08-17T21:27:42.203Z,5.80
2017-08-17T21:30:12.689Z,5.37
2017-08-17T21:32:43.874Z,5.73
2017-08-17T21:35:14.266Z,5.20
2017-08-17T21:37:45.566Z,5.53
2017-08-17T21:40:15.982Z,5.07
2017-08-17T21:42:46.328Z,5.13
2017-08-17T21:45:16.674Z,5.33
2017-08-17T21:47:46.831Z,7.13
2017-08-17T21:50:17.302Z,7.93
2017-08-17T21:52:47.626Z,10.20
2017-08-17T21:55:18.205Z,10.67
2017-08-17T21:57:49.603Z,12.83
2017-08-17T22:00:20.010Z,16.00
2017-08-17T22:02:50.329Z,16.53
2017-08-17T22:05:20.839Z,15.17
2017-08-17T22:07:51.912Z,15.00
2017-08-17T22:10:22.571Z,8.90
2017-08-17T22:12:52.971Z,8.50
2017-08-17T22:15:23.491Z,7.80
2017-08-17T22:17:54.355Z,9.60
2017-08-17T22:20:24.827Z,8.20
2017-08-17T22:22:55.831Z,8.27
2017-08-17T22:25:26.816Z,8.33
2017-08-17T22:27:57.310Z,8.33
2017-08-17T22:30:27.892Z,8.23
2017-08-17T22:32:59.190Z,8.53
2017-08-17T22:35:29.931Z,8.87
2017-08-17T22:38:00.353Z,10.37
2017-08-17T22:40:30.844Z,8.50
2017-08-17T22:43:02.248Z,7.43
2017-08-17T22:45:32.628Z,8.27
2017-08-17T22:48:13.762Z,7.50
2017-08-17T22:50:44.323Z,8.63
2017-08-17T22:53:14.902Z,8.87
2017-08-17T22:55:45.231Z,10.43
2017-08-17T22:58:15.769Z,8.30
2017-08-17T23:00:46.051Z,8.47
2017-08-17T23:03:17.149Z,9.30
2017-08-17T23:05:47.418Z,7.30
2017-08-17T23:08:17.801Z,8.73
2017-08-17T23:10:48.396Z,8.23
2017-08-17T23:13:19.024Z,9.03
2017-08-17T23:15:50.177Z,9.77
2017-08-17T23:18:20.829Z,10.03
2017-08-17T23:20:51.463Z,9.23
2017-08-17T23:23:21.851Z,8.03
2017-08-17T23:25:53.188Z,7.10
2017-08-17T23:28:23.790Z,8.20
2017-08-17T23:30:54.311Z,11.03
2017-08-17T23:33:24.633Z,9.40
2017-08-17T23:35:55.106Z,9.40
2017-08-17T23:38:25.878Z,10.07
2017-08-17T23:40:56.457Z,9.27
2017-08-17T23:43:27.155Z,10.73
2017-08-17T23:45:57.797Z,10.40
2017-08-17T23:48:28.217Z,10.00
2017-08-17T23:50:58.467Z,9.77
2017-08-17T23:53:28.982Z,10.33
2017-08-17T23:55:59.389Z,10.80
2017-08-17T23:58:29.876Z,13.00
